Time;durP1;ratioP1;P1;durP2;ratioP2;P2;SDS_P1;SDS_P2;PMS_P1;PMS_P2;Temp;Humidity;BMP_temperature;BMP_pressure;BME280_temperature;BME280_humidity;BME280_pressure;Samples;Min_cycle;Max_cycle;Signal;HPM_P1;HPM_P2
2022/03/02 00:01:41;;;;;;;9.70;5.07;;;-0.10;70.70;;;;;;5058412;28;20123;-80
2022/03/02 00:04:07;;;;;;;6.05;3.90;;;-0.20;70.80;;;;;;5057496;28;20033;-81
2022/03/02 00:06:33;;;;;;;9.00;4.65;;;-0.20;70.90;;;;;;5057494;28;20097;-81
2022/03/02 00:08:59;;;;;;;8.55;4.80;;;-0.20;71.10;;;;;;5059368;28;20025;-80
2022/03/02 00:11:24;;;;;;;8.20;4.22;;;-0.20;71.30;;;;;;5056734;28;20029;-81
2022/03/02 00:13:50;;;;;;;7.53;4.30;;;-0.20;71.50;;;;;;5038297;28;20025;-80
2022/03/02 00:16:19;;;;;;;8.85;4.60;;;-0.20;72.30;;;;;;5056616;28;20441;-80
2022/03/02 00:18:44;;;;;;;7.85;4.32;;;-0.30;72.00;;;;;;5055534;28;20064;-81
2022/03/02 00:21:10;;;;;;;9.70;4.25;;;-0.30;72.20;;;;;;5055893;28;20055;-79
2022/03/02 00:23:36;;;;;;;7.45;4.57;;;-0.30;72.60;;;;;;5035076;28;20028;-80
2022/03/02 00:26:02;;;;;;;8.52;4.55;;;-0.30;72.80;;;;;;5038799;28;20033;-80
2022/03/02 00:28:28;;;;;;;6.25;4.13;;;-0.30;73.00;;;;;;5056245;28;20090;-80
2022/03/02 00:30:54;;;;;;;7.97;4.82;;;-0.30;73.30;;;;;;5038114;28;20029;-81
2022/03/02 00:33:20;;;;;;;10.02;5.03;;;-0.30;73.70;;;;;;5037440;28;20028;-81
2022/03/02 00:35:46;;;;;;;12.25;5.80;;;-0.30;73.90;;;;;;5060321;28;20040;-81
2022/03/02 00:38:12;;;;;;;8.70;4.90;;;-0.30;73.80;;;;;;5061776;28;20031;-81
2022/03/02 00:40:38;;;;;;;8.70;4.80;;;-0.30;73.80;;;;;;5042415;28;20056;-81
2022/03/02 00:43:05;;;;;;;8.15;4.88;;;-0.30;73.70;;;;;;5044515;28;20029;-79
2022/03/02 00:45:32;;;;;;;8.25;4.93;;;-0.40;73.40;;;;;;5063943;28;20180;-79
2022/03/02 00:47:59;;;;;;;9.23;5.53;;;-0.40;73.20;;;;;;5064491;28;20031;-80
2022/03/02 00:50:25;;;;;;;7.57;4.95;;;-0.40;73.20;;;;;;5063539;28;20056;-79
2022/03/02 00:52:51;;;;;;;10.30;4.85;;;-0.40;72.90;;;;;;5060518;28;20462;-79
2022/03/02 00:55:17;;;;;;;9.45;5.22;;;-0.40;72.60;;;;;;5063540;28;20073;-79
2022/03/02 00:57:43;;;;;;;8.85;5.47;;;-0.50;72.40;;;;;;5063650;28;20032;-79
2022/03/02 01:00:09;;;;;;;8.95;5.18;;;-0.50;72.50;;;;;;5046279;28;20041;-80
2022/03/02 01:02:35;;;;;;;6.25;4.03;;;-0.50;72.50;;;;;;5063588;28;20029;-79
2022/03/02 01:05:01;;;;;;;7.30;4.40;;;-0.60;72.70;;;;;;5063707;28;20094;-79
2022/03/02 01:07:27;;;;;;;8.18;4.85;;;-0.50;73.10;;;;;;5066786;28;20119;-79
2022/03/02 01:09:53;;;;;;;9.40;4.88;;;-0.50;73.20;;;;;;5068457;28;20021;-80
2022/03/02 01:12:18;;;;;;;8.52;4.72;;;-0.50;73.20;;;;;;5064958;28;20096;-81
2022/03/02 01:14:45;;;;;;;8.45;4.68;;;-0.50;73.10;;;;;;5060529;28;20036;-80
2022/03/02 01:17:10;;;;;;;9.80;5.10;;;-0.60;73.10;;;;;;5058945;28;20036;-81
2022/03/02 01:19:38;;;;;;;9.10;5.10;;;-0.60;73.10;;;;;;5058780;28;20045;-81
2022/03/02 01:22:05;;;;;;;9.75;4.95;;;-0.60;73.10;;;;;;5056845;28;20061;-80
2022/03/02 01:24:31;;;;;;;12.45;5.43;;;-0.70;73.20;;;;;;5031291;28;20037;-79
2022/03/02 01:26:56;;;;;;;8.43;5.32;;;-0.70;73.30;;;;;;5039777;28;20089;-80
2022/03/02 01:29:23;;;;;;;10.43;5.65;;;-0.70;73.40;;;;;;5057528;28;20153;-81
2022/03/02 01:31:49;;;;;;;9.65;5.25;;;-0.70;73.70;;;;;;5057939;28;20064;-80
2022/03/02 01:34:14;;;;;;;10.00;5.28;;;-0.70;73.70;;;;;;5058042;28;20096;-80
2022/03/02 01:36:40;;;;;;;9.07;4.90;;;-0.70;73.90;;;;;;5058189;28;20385;-79
2022/03/02 01:39:06;;;;;;;7.95;4.43;;;-0.80;74.00;;;;;;5057728;28;20029;-79
2022/03/02 01:41:32;;;;;;;10.32;5.28;;;-0.80;74.60;;;;;;5039569;28;20029;-80
2022/03/02 01:43:58;;;;;;;10.38;5.50;;;-0.90;75.70;;;;;;5057199;28;20021;-79
2022/03/02 01:46:23;;;;;;;10.73;5.60;;;-0.90;75.60;;;;;;5040212;28;20028;-79
2022/03/02 01:48:49;;;;;;;13.93;5.68;;;-1.00;76.10;;;;;;5039312;28;20021;-80
2022/03/02 01:51:16;;;;;;;11.05;5.45;;;-1.00;76.20;;;;;;5057462;28;20025;-80
2022/03/02 01:53:42;;;;;;;9.55;5.72;;;-1.00;76.40;;;;;;5029085;28;20090;-80
2022/03/02 01:56:08;;;;;;;9.05;5.55;;;-1.10;76.60;;;;;;5049988;28;20040;-80
2022/03/02 01:58:34;;;;;;;10.90;5.13;;;-1.00;76.90;;;;;;5042432;28;20382;-80
2022/03/02 02:01:01;;;;;;;11.85;6.55;;;-1.00;77.10;;;;;;5037961;28;20467;-80
2022/03/02 02:03:28;;;;;;;13.23;5.82;;;-1.00;77.20;;;;;;5038516;28;20026;-80
2022/03/02 02:05:54;;;;;;;12.32;5.50;;;-1.00;77.50;;;;;;5038176;28;20041;-82
2022/03/02 02:08:20;;;;;;;11.07;5.63;;;-1.00;77.70;;;;;;5020886;28;20117;-83
2022/03/02 02:10:46;;;;;;;11.15;6.30;;;-1.00;77.80;;;;;;5043839;28;20028;-79
2022/03/02 02:13:12;;;;;;;11.75;6.05;;;-1.10;78.20;;;;;;5043947;28;20033;-80
2022/03/02 02:15:38;;;;;;;11.27;6.20;;;-1.10;78.50;;;;;;5038940;28;20029;-79
2022/03/02 02:18:04;;;;;;;12.85;6.72;;;-1.10;78.60;;;;;;5042484;28;20021;-81
2022/03/02 02:20:40;;;;;;;15.20;6.82;;;-1.10;78.80;;;;;;5030113;28;20064;-81
2022/03/02 02:23:06;;;;;;;13.35;6.93;;;-1.10;78.80;;;;;;5030571;28;20063;-82
2022/03/02 02:25:32;;;;;;;9.45;5.85;;;-1.20;78.90;;;;;;5051535;28;20116;-81
2022/03/02 02:27:59;;;;;;;10.95;6.18;;;-1.20;79.00;;;;;;5061183;28;20519;-83
2022/03/02 02:30:26;;;;;;;9.10;6.05;;;-1.20;78.90;;;;;;5059861;28;20048;-81
2022/03/02 02:32:52;;;;;;;11.10;6.10;;;-1.20;78.90;;;;;;5040394;28;20029;-81
2022/03/02 02:35:18;;;;;;;10.70;5.70;;;-1.30;79.00;;;;;;5040522;28;20040;-81
2022/03/02 02:37:44;;;;;;;12.00;6.15;;;-1.30;79.20;;;;;;5040811;28;20036;-82
2022/03/02 02:40:13;;;;;;;12.98;6.00;;;-1.30;79.40;;;;;;5058066;28;20072;-81
2022/03/02 02:42:44;;;;;;;11.85;6.07;;;-1.30;79.60;;;;;;5057471;28;20102;-80
2022/03/02 02:45:15;;;;;;;14.75;5.47;;;-1.30;79.70;;;;;;5039292;28;20389;-80
2022/03/02 02:47:42;;;;;;;12.25;6.47;;;-1.40;79.80;;;;;;5057282;28;20025;-81
2022/03/02 02:50:27;;;;;;;10.70;6.13;;;-1.40;80.10;;;;;;5057751;28;20025;-81
2022/03/02 02:52:54;;;;;;;11.77;6.30;;;-1.50;80.30;;;;;;5036139;28;20021;-81
2022/03/02 02:55:22;;;;;;;10.57;5.65;;;-1.60;80.70;;;;;;5039982;28;20021;-80
2022/03/02 02:57:48;;;;;;;9.85;5.13;;;-1.60;81.10;;;;;;5037451;28;20041;-80
2022/03/02 03:00:17;;;;;;;12.13;5.65;;;-1.50;81.40;;;;;;5020632;28;20161;-81
2022/03/02 03:02:45;;;;;;;15.45;8.10;;;-1.50;81.50;;;;;;5038193;28;20032;-81
2022/03/02 03:05:16;;;;;;;18.20;9.05;;;-1.50;81.40;;;;;;5019632;28;20038;-81
2022/03/02 03:07:43;;;;;;;20.92;9.85;;;-1.50;81.10;;;;;;5037491;28;20076;-80
2022/03/02 03:10:10;;;;;;;18.15;9.18;;;-1.50;80.90;;;;;;5037651;28;20021;-82
2022/03/02 03:12:37;;;;;;;16.45;8.18;;;-1.50;80.80;;;;;;5037628;28;20108;-80
2022/03/02 03:15:05;;;;;;;13.07;6.57;;;-1.40;80.80;;;;;;5019190;28;20036;-79
2022/03/02 03:17:31;;;;;;;12.75;7.00;;;-1.40;80.20;;;;;;5037490;28;20132;-80
2022/03/02 03:19:57;;;;;;;13.23;6.63;;;-1.40;80.00;;;;;;5038876;28;20033;-79
2022/03/02 03:22:23;;;;;;;10.68;6.20;;;-1.40;79.70;;;;;;5044722;28;20060;-79
2022/03/02 03:24:48;;;;;;;12.52;6.80;;;-1.40;79.50;;;;;;5058605;28;20107;-79
2022/03/02 03:27:14;;;;;;;11.68;6.55;;;-1.40;79.30;;;;;;5043307;28;20021;-79
2022/03/02 03:29:40;;;;;;;10.05;5.15;;;-1.40;78.90;;;;;;5025106;28;20032;-80
2022/03/02 03:32:06;;;;;;;11.55;6.00;;;-1.30;78.80;;;;;;5046969;28;20025;-80
2022/03/02 03:34:33;;;;;;;10.63;6.22;;;-1.30;78.70;;;;;;5042573;28;20025;-79
2022/03/02 03:36:59;;;;;;;10.50;6.00;;;-1.30;78.60;;;;;;5037700;28;20030;-78
2022/03/02 03:39:26;;;;;;;12.10;5.53;;;-1.30;78.60;;;;;;5038979;28;20482;-79
2022/03/02 03:41:52;;;;;;;9.50;5.32;;;-1.30;78.70;;;;;;5039239;28;20032;-80
2022/03/02 03:44:18;;;;;;;10.55;5.50;;;-1.40;78.70;;;;;;5022289;28;20029;-79
2022/03/02 03:46:43;;;;;;;11.52;4.90;;;-1.40;78.50;;;;;;5041251;28;20052;-79
2022/03/02 03:49:09;;;;;;;12.07;5.05;;;-1.40;78.10;;;;;;5041289;28;20026;-79
2022/03/02 03:51:35;;;;;;;8.73;4.55;;;-1.40;77.60;;;;;;5024053;28;20022;-78
2022/03/02 03:54:01;;;;;;;8.82;4.45;;;-1.40;77.20;;;;;;5056733;28;20051;-78
2022/03/02 03:56:31;;;;;;;9.40;5.03;;;-1.50;76.90;;;;;;5062855;28;20056;-79
2022/03/02 03:59:00;;;;;;;13.45;6.68;;;-1.50;76.90;;;;;;5044863;28;20032;-79
2022/03/02 04:01:26;;;;;;;12.10;6.32;;;-1.50;77.00;;;;;;5044440;28;20102;-79
2022/03/02 04:03:52;;;;;;;20.00;8.88;;;-1.50;77.10;;;;;;5063533;28;20029;-80
2022/03/02 04:06:21;;;;;;;17.90;8.13;;;-1.50;77.20;;;;;;5064449;28;20040;-79
2022/03/02 04:08:46;;;;;;;14.57;8.02;;;-1.50;77.30;;;;;;5040008;28;20163;-80
2022/03/02 04:11:12;;;;;;;11.93;5.70;;;-1.50;77.60;;;;;;5063325;28;20021;-80
2022/03/02 04:13:38;;;;;;;11.18;6.43;;;-1.50;77.90;;;;;;5045875;28;20045;-80
2022/03/02 04:16:05;;;;;;;11.45;5.90;;;-1.50;78.30;;;;;;5065155;28;20035;-79
2022/03/02 04:18:33;;;;;;;10.75;5.05;;;-1.50;78.30;;;;;;5046995;28;20025;-80
2022/03/02 04:21:00;;;;;;;11.27;5.05;;;-1.50;78.30;;;;;;5068422;28;20096;-79
2022/03/02 04:23:26;;;;;;;8.65;4.82;;;-1.40;78.30;;;;;;5058597;28;20033;-79
2022/03/02 04:25:52;;;;;;;8.35;4.57;;;-1.30;78.20;;;;;;5058391;28;20021;-79
2022/03/02 04:28:19;;;;;;;8.55;4.68;;;-1.30;77.90;;;;;;5059775;28;20396;-79
2022/03/02 04:30:45;;;;;;;10.00;4.90;;;-1.30;77.60;;;;;;5065210;28;20035;-80
2022/03/02 04:33:12;;;;;;;10.65;4.85;;;-1.30;77.30;;;;;;5045581;28;20021;-79
2022/03/02 04:35:39;;;;;;;8.10;4.60;;;-1.30;77.00;;;;;;5057896;28;20035;-79
2022/03/02 04:38:05;;;;;;;8.55;4.97;;;-1.40;76.80;;;;;;5040640;28;20022;-79
2022/03/02 04:40:32;;;;;;;8.05;4.28;;;-1.40;76.70;;;;;;5035328;28;20029;-80
2022/03/02 04:42:58;;;;;;;6.35;4.00;;;-1.40;77.00;;;;;;5018502;28;20387;-80
2022/03/02 04:45:25;;;;;;;5.75;4.03;;;-1.30;77.10;;;;;;5035385;28;20090;-80
2022/03/02 04:47:52;;;;;;;8.73;4.43;;;-1.40;77.00;;;;;;5021557;28;20021;-79
2022/03/02 04:50:19;;;;;;;8.85;4.03;;;-1.40;77.00;;;;;;5043537;28;20036;-79
2022/03/02 04:52:46;;;;;;;8.38;4.45;;;-1.40;77.30;;;;;;5036968;28;20014;-80
2022/03/02 04:55:12;;;;;;;7.25;4.35;;;-1.30;77.50;;;;;;5073857;28;20063;-79
2022/03/02 04:57:42;;;;;;;6.78;3.65;;;-1.30;77.50;;;;;;5057936;28;20073;-81
2022/03/02 05:00:14;;;;;;;7.63;4.10;;;-1.20;77.50;;;;;;5074465;28;20041;-81
2022/03/02 05:02:41;;;;;;;9.40;4.22;;;-1.10;77.30;;;;;;5046446;28;20025;-83
2022/03/02 05:05:08;;;;;;;8.27;3.95;;;-1.10;77.00;;;;;;5066842;28;20531;-84
2022/03/02 05:07:35;;;;;;;8.98;4.43;;;-1.10;76.70;;;;;;5051297;28;20084;-83
2022/03/02 05:10:02;;;;;;;6.55;4.43;;;-1.10;76.60;;;;;;5054498;28;20035;-84
2022/03/02 05:12:28;;;;;;;7.22;4.07;;;-1.20;76.50;;;;;;5049270;28;20037;-83
2022/03/02 05:14:54;;;;;;;8.75;4.55;;;-1.10;76.60;;;;;;5048003;28;20082;-84
2022/03/02 05:17:20;;;;;;;11.63;4.50;;;-1.10;76.60;;;;;;5051883;28;20053;-84
2022/03/02 05:19:45;;;;;;;7.70;4.03;;;-1.10;76.40;;;;;;5052487;28;20029;-83
2022/03/02 05:22:11;;;;;;;6.32;3.90;;;-1.10;76.20;;;;;;5053367;28;20030;-83
2022/03/02 05:24:37;;;;;;;7.80;4.25;;;-1.00;76.00;;;;;;5056280;28;20032;-83
2022/03/02 05:27:04;;;;;;;7.53;4.30;;;-1.00;75.70;;;;;;5024330;28;20483;-84
2022/03/02 05:29:30;;;;;;;7.70;3.60;;;-1.00;75.40;;;;;;5049388;28;20029;-85
2022/03/02 05:31:56;;;;;;;5.38;3.75;;;-1.00;75.30;;;;;;5027836;28;20076;-83
2022/03/02 05:34:22;;;;;;;7.60;4.35;;;-1.00;75.30;;;;;;5038779;28;20371;-81
2022/03/02 05:36:48;;;;;;;9.45;4.95;;;-0.90;75.10;;;;;;5037811;28;20041;-84
2022/03/02 05:39:14;;;;;;;8.32;3.63;;;-0.90;74.60;;;;;;5037671;28;20037;-83
2022/03/02 05:41:40;;;;;;;8.57;4.35;;;-0.90;74.30;;;;;;5047357;28;20425;-83
2022/03/02 05:44:07;;;;;;;6.63;3.53;;;-0.90;74.10;;;;;;5049378;28;20029;-82
2022/03/02 05:46:34;;;;;;;6.60;3.88;;;-0.90;74.00;;;;;;5050299;28;20010;-83
2022/03/02 05:49:01;;;;;;;5.80;3.88;;;-0.90;73.80;;;;;;5052821;28;20036;-84
2022/03/02 05:51:27;;;;;;;6.03;3.58;;;-0.80;73.70;;;;;;5028447;28;20029;-84
2022/03/02 05:53:53;;;;;;;8.15;3.80;;;-0.70;73.60;;;;;;5025462;28;20121;-84
2022/03/02 05:56:19;;;;;;;7.15;3.90;;;-0.70;73.40;;;;;;5036497;28;20043;-83
2022/03/02 05:58:45;;;;;;;6.47;3.72;;;-0.70;73.10;;;;;;5039247;28;20036;-84
2022/03/02 06:01:11;;;;;;;6.22;3.17;;;-0.60;72.80;;;;;;5044561;28;20116;-84
2022/03/02 06:03:37;;;;;;;6.55;3.53;;;-0.60;72.60;;;;;;5055793;28;20093;-83
2022/03/02 06:06:04;;;;;;;6.25;3.65;;;-0.50;72.60;;;;;;5043169;28;20026;-84
2022/03/02 06:08:29;;;;;;;6.93;3.90;;;-0.50;72.60;;;;;;5041704;28;20065;-84
2022/03/02 06:10:55;;;;;;;3.50;2.67;;;-0.40;72.60;;;;;;5022874;28;20038;-84
2022/03/02 06:13:21;;;;;;;7.13;3.25;;;-0.40;72.60;;;;;;5042197;28;20025;-84
2022/03/02 06:15:47;;;;;;;5.05;3.75;;;-0.30;72.50;;;;;;5041403;28;20104;-85
2022/03/02 06:18:13;;;;;;;6.40;3.40;;;-0.30;72.30;;;;;;5023645;28;20033;-85
2022/03/02 06:20:41;;;;;;;9.55;3.95;;;-0.30;72.10;;;;;;5023691;28;20483;-84
2022/03/02 06:23:07;;;;;;;4.85;2.92;;;-0.20;72.30;;;;;;5023228;28;20039;-85
2022/03/02 06:25:33;;;;;;;5.65;3.25;;;-0.10;72.80;;;;;;5040504;28;20029;-86
2022/03/02 06:27:59;;;;;;;5.45;3.35;;;-0.10;72.20;;;;;;5042235;28;20083;-81
2022/03/02 06:30:25;;;;;;;3.85;2.67;;;0.00;72.10;;;;;;5047637;28;20025;-81
2022/03/02 06:32:50;;;;;;;6.88;3.50;;;0.10;71.90;;;;;;5048221;28;20100;-83
2022/03/02 06:35:16;;;;;;;5.63;3.53;;;0.20;71.60;;;;;;5046328;28;20060;-81
2022/03/02 06:37:42;;;;;;;6.55;3.38;;;0.10;71.20;;;;;;5050184;28;20049;-80
2022/03/02 06:40:13;;;;;;;6.20;3.60;;;0.20;71.20;;;;;;5052921;28;20041;-79
2022/03/02 06:42:49;;;;;;;6.32;3.63;;;0.20;70.90;;;;;;5051279;28;20049;-79
2022/03/02 06:45:27;;;;;;;6.70;3.45;;;0.10;70.40;;;;;;5055873;28;20025;-82
2022/03/02 06:48:02;;;;;;;5.72;3.25;;;0.20;70.10;;;;;;5063082;28;20052;-81
2022/03/02 06:50:31;;;;;;;5.85;3.42;;;0.20;69.90;;;;;;5066793;28;20051;-81
2022/03/02 06:53:01;;;;;;;6.30;3.45;;;0.40;69.70;;;;;;5053662;28;20026;-81
2022/03/02 06:55:29;;;;;;;5.25;3.17;;;0.40;69.10;;;;;;5051419;28;20577;-81
2022/03/02 06:57:57;;;;;;;5.90;3.10;;;0.40;68.60;;;;;;5054479;28;20100;-81
2022/03/02 07:00:23;;;;;;;6.18;3.20;;;0.40;68.40;;;;;;5062249;28;20096;-81
2022/03/02 07:02:51;;;;;;;5.63;2.97;;;0.40;68.40;;;;;;5062790;28;20029;-81
2022/03/02 07:05:18;;;;;;;7.35;2.88;;;0.40;68.40;;;;;;5062115;28;20054;-82
2022/03/02 07:07:45;;;;;;;4.60;2.72;;;0.50;68.20;;;;;;5045825;28;20096;-82
2022/03/02 07:10:11;;;;;;;6.40;2.92;;;0.70;67.90;;;;;;5063888;28;20051;-81
2022/03/02 07:12:38;;;;;;;11.57;3.13;;;0.80;67.80;;;;;;5062156;28;20462;-81
2022/03/02 07:15:05;;;;;;;4.72;2.60;;;1.00;67.30;;;;;;5062304;28;20128;-79
2022/03/02 07:17:34;;;;;;;4.18;2.58;;;1.10;66.90;;;;;;5063294;28;20045;-81
2022/03/02 07:20:04;;;;;;;5.65;3.28;;;1.10;66.40;;;;;;5064110;28;20083;-78
2022/03/02 07:22:54;;;;;;;4.40;2.55;;;1.20;66.30;;;;;;5063702;28;20029;-82
2022/03/02 07:25:29;;;;;;;6.38;2.75;;;1.20;66.10;;;;;;5072694;28;20066;-85
2022/03/02 07:27:59;;;;;;;5.75;2.92;;;1.20;65.60;;;;;;5077309;28;20282;-82
2022/03/02 07:30:27;;;;;;;5.55;3.45;;;1.20;65.60;;;;;;5070553;28;20092;-82
2022/03/02 07:33:00;;;;;;;7.45;3.58;;;1.30;65.50;;;;;;5069620;28;20077;-84
2022/03/02 07:35:31;;;;;;;7.40;3.42;;;1.30;65.40;;;;;;5029020;28;20022;-81
2022/03/02 07:37:57;;;;;;;8.20;3.75;;;1.50;65.60;;;;;;5029268;28;20018;-84
2022/03/02 07:40:23;;;;;;;7.88;3.80;;;1.70;65.50;;;;;;5029531;28;20107;-83
2022/03/02 07:42:50;;;;;;;4.40;2.90;;;1.90;65.30;;;;;;5027955;28;20025;-81
2022/03/02 07:45:16;;;;;;;6.03;3.28;;;2.00;64.90;;;;;;5012208;28;20030;-83
2022/03/02 07:47:43;;;;;;;8.48;3.30;;;2.10;64.50;;;;;;5027538;28;20018;-83
2022/03/02 07:50:10;;;;;;;4.15;2.70;;;2.30;63.70;;;;;;5059098;28;20028;-83
2022/03/02 07:52:38;;;;;;;6.00;3.50;;;2.50;63.00;;;;;;5068053;28;20025;-82
2022/03/02 07:55:09;;;;;;;6.30;3.40;;;2.70;62.30;;;;;;5046404;28;20105;-83
2022/03/02 07:57:38;;;;;;;6.43;2.55;;;2.80;61.50;;;;;;5038575;28;20021;-83
2022/03/02 08:00:05;;;;;;;3.95;2.42;;;2.90;60.70;;;;;;5067156;28;20092;-83
2022/03/02 08:02:31;;;;;;;3.35;2.00;;;3.10;60.40;;;;;;5053211;28;20035;-82
2022/03/02 08:04:58;;;;;;;4.05;2.55;;;3.20;59.90;;;;;;5025250;28;20036;-80
2022/03/02 08:07:27;;;;;;;6.15;3.40;;;3.30;59.30;;;;;;5044410;28;20017;-82
2022/03/02 08:09:53;;;;;;;4.93;2.85;;;3.50;58.80;;;;;;5053496;28;20036;-83
2022/03/02 08:12:21;;;;;;;5.13;2.95;;;3.60;58.00;;;;;;5045552;28;20033;-83
2022/03/02 08:14:48;;;;;;;9.15;3.65;;;3.70;57.70;;;;;;5034154;28;20025;-83
2022/03/02 08:17:14;;;;;;;4.90;3.47;;;3.80;57.20;;;;;;5055425;28;20025;-83
2022/03/02 08:19:40;;;;;;;6.22;3.75;;;3.80;57.20;;;;;;5042154;28;20121;-84
2022/03/02 08:22:17;;;;;;;7.32;4.05;;;3.80;57.10;;;;;;5066174;28;20032;-84
2022/03/02 08:24:50;;;;;;;7.25;4.78;;;3.90;57.00;;;;;;5068250;28;20013;-83
2022/03/02 08:27:16;;;;;;;9.52;5.03;;;3.90;57.00;;;;;;5059731;28;20106;-82
2022/03/02 08:29:46;;;;;;;8.25;4.32;;;4.00;57.20;;;;;;5062936;28;20513;-82
2022/03/02 08:32:15;;;;;;;7.50;3.92;;;4.20;56.80;;;;;;5064938;28;20039;-80
2022/03/02 08:34:43;;;;;;;7.13;4.07;;;4.40;56.40;;;;;;5039872;28;20309;-83
2022/03/02 08:37:09;;;;;;;8.15;4.30;;;4.70;56.50;;;;;;5044094;28;20081;-83
2022/03/02 08:39:38;;;;;;;7.93;3.63;;;5.00;55.60;;;;;;5045957;28;20048;-81
2022/03/02 08:42:07;;;;;;;5.70;3.55;;;5.20;54.10;;;;;;5046691;28;20028;-83
2022/03/02 08:44:33;;;;;;;8.88;3.50;;;5.30;53.60;;;;;;5046926;28;20093;-82
2022/03/02 08:46:59;;;;;;;4.78;3.20;;;5.40;53.00;;;;;;5047420;28;20017;-82
2022/03/02 08:49:25;;;;;;;4.03;2.88;;;5.40;53.10;;;;;;5038411;28;20111;-83
2022/03/02 08:51:50;;;;;;;5.57;3.40;;;5.50;52.90;;;;;;5054801;28;20101;-82
2022/03/02 08:54:18;;;;;;;6.70;4.40;;;5.50;52.80;;;;;;5047062;28;20026;-83
2022/03/02 08:56:47;;;;;;;14.30;5.85;;;5.30;52.80;;;;;;5047412;28;20035;-83
2022/03/02 08:59:15;;;;;;;11.75;4.80;;;5.30;53.20;;;;;;5047171;28;20032;-82
2022/03/02 09:01:48;;;;;;;12.23;5.20;;;5.10;53.70;;;;;;5047460;28;20057;-83
2022/03/02 09:04:15;;;;;;;;;;;5.20;54.30;;;;;;5047752;28;20064;-82
2022/03/02 09:06:42;;;;;;;9.75;5.22;;;5.10;54.20;;;;;;5049933;28;19913;-84
2022/03/02 09:09:08;;;;;;;10.07;4.88;;;5.10;54.40;;;;;;5053438;28;20110;-84
2022/03/02 09:11:34;;;;;;;10.30;5.35;;;5.00;54.40;;;;;;5035681;28;20071;-83
2022/03/02 09:14:01;;;;;;;13.55;5.53;;;5.00;54.40;;;;;;5053378;28;20029;-84
2022/03/02 09:16:27;;;;;;;11.18;5.10;;;5.00;54.60;;;;;;5043977;28;20025;-83
2022/03/02 09:18:53;;;;;;;11.55;6.13;;;5.10;54.90;;;;;;5038094;28;20470;-82
2022/03/02 09:21:20;;;;;;;21.13;8.60;;;5.30;53.60;;;;;;5056528;28;20159;-82
2022/03/02 09:23:46;;;;;;;12.52;5.25;;;5.40;53.70;;;;;;5043751;28;20029;-84
2022/03/02 09:26:15;;;;;;;9.73;5.50;;;5.60;54.20;;;;;;5040554;28;20033;-82
2022/03/02 09:28:45;;;;;;;18.02;6.00;;;6.00;53.90;;;;;;5044466;28;20044;-80
2022/03/02 09:31:14;;;;;;;10.32;5.38;;;5.90;52.50;;;;;;5054661;28;20014;-82
2022/03/02 09:33:46;;;;;;;10.40;5.93;;;5.90;53.10;;;;;;5054436;28;20184;-82
2022/03/02 09:36:12;;;;;;;10.63;6.10;;;5.90;52.40;;;;;;5051003;28;20026;-82
2022/03/02 09:38:39;;;;;;;17.13;6.28;;;6.00;53.10;;;;;;5052550;28;20025;-83
2022/03/02 09:41:08;;;;;;;16.05;6.03;;;5.90;52.50;;;;;;5043118;28;20127;-82
2022/03/02 09:43:36;;;;;;;8.50;5.68;;;5.80;52.90;;;;;;5040581;28;20025;-82
2022/03/02 09:46:07;;;;;;;13.52;6.50;;;5.90;53.30;;;;;;5040461;28;20029;-82
2022/03/02 09:48:40;;;;;;;9.00;5.65;;;5.80;53.00;;;;;;5049995;28;20029;-81
2022/03/02 09:51:08;;;;;;;9.00;5.80;;;5.60;53.60;;;;;;5042497;28;20018;-81
2022/03/02 09:53:35;;;;;;;13.43;5.97;;;5.50;54.40;;;;;;5043418;28;20032;-82
2022/03/02 09:56:04;;;;;;;13.35;6.30;;;5.50;54.50;;;;;;5047738;28;20028;-83
2022/03/02 09:58:30;;;;;;;17.27;6.45;;;5.50;53.80;;;;;;5056229;28;20076;-82
2022/03/02 10:00:58;;;;;;;16.35;5.90;;;5.50;54.00;;;;;;5057429;28;20144;-83
2022/03/02 10:03:27;;;;;;;10.30;5.72;;;5.50;53.10;;;;;;5058521;28;20096;-83
2022/03/02 10:05:53;;;;;;;11.07;5.25;;;5.50;53.60;;;;;;5057369;28;20462;-83
2022/03/02 10:08:23;;;;;;;13.88;5.75;;;5.60;54.00;;;;;;5031982;28;20029;-82
2022/03/02 10:10:49;;;;;;;11.57;5.45;;;5.70;53.80;;;;;;5027844;28;20449;-80
2022/03/02 10:13:17;;;;;;;11.68;6.07;;;5.90;53.50;;;;;;5038689;28;20445;-82
2022/03/02 10:15:44;;;;;;;11.43;4.70;;;6.10;52.70;;;;;;5045045;28;20060;-83
2022/03/02 10:18:12;;;;;;;9.95;5.47;;;6.10;52.40;;;;;;5033464;28;20021;-83
2022/03/02 10:20:40;;;;;;;8.88;4.85;;;6.30;52.40;;;;;;5054457;28;20013;-81
2022/03/02 10:23:24;;;;;;;8.63;5.35;;;6.60;52.40;;;;;;5048876;28;20048;-81
2022/03/02 10:25:58;;;;;;;9.68;5.03;;;7.10;51.90;;;;;;5044678;28;20092;-82
2022/03/02 10:28:27;;;;;;;11.02;5.78;;;7.20;50.00;;;;;;5044665;28;20021;-81
2022/03/02 10:31:29;;;;;;;8.52;5.50;;;7.30;49.70;;;;;;5040831;28;20037;-82
2022/03/02 10:34:00;;;;;;;7.40;4.95;;;7.30;49.30;;;;;;5055190;28;20022;-82
2022/03/02 10:36:29;;;;;;;10.27;4.57;;;7.20;48.80;;;;;;5057592;28;20537;-82
2022/03/02 10:38:57;;;;;;;9.52;5.60;;;7.30;49.40;;;;;;5039165;28;20032;-81
2022/03/02 10:41:28;;;;;;;8.38;4.20;;;7.20;48.90;;;;;;5020525;28;20026;-81
2022/03/02 10:44:21;;;;;;;9.80;4.93;;;7.20;49.00;;;;;;5021674;28;20026;-82
2022/03/02 10:46:55;;;;;;;10.18;4.47;;;7.30;49.00;;;;;;5021689;28;20098;-83
2022/03/02 10:49:22;;;;;;;12.18;4.90;;;7.40;48.40;;;;;;5049522;28;20079;-82
2022/03/02 10:51:48;;;;;;;6.90;4.90;;;7.40;48.40;;;;;;5043846;28;20022;-83
2022/03/02 10:54:17;;;;;;;10.07;4.55;;;7.40;47.70;;;;;;5041421;28;20026;-83
2022/03/02 10:56:44;;;;;;;11.57;4.20;;;7.40;48.30;;;;;;5041025;28;20025;-82
2022/03/02 10:59:17;;;;;;;11.15;4.68;;;7.40;47.70;;;;;;5022681;28;20602;-83
2022/03/02 11:01:45;;;;;;;6.18;4.18;;;7.30;47.30;;;;;;5022659;28;20098;-82
2022/03/02 11:04:12;;;;;;;11.65;5.65;;;7.20;47.70;;;;;;5040943;28;20064;-81
2022/03/02 11:06:38;;;;;;;12.48;5.20;;;7.20;47.20;;;;;;5024580;28;20116;-81
2022/03/02 11:09:05;;;;;;;6.53;4.68;;;7.20;47.30;;;;;;5049474;28;20030;-82
2022/03/02 11:11:37;;;;;;;12.32;3.90;;;7.20;47.80;;;;;;5055769;28;20049;-83
2022/03/02 11:14:04;;;;;;;7.30;4.57;;;7.30;47.70;;;;;;5055987;28;20036;-84
2022/03/02 11:16:30;;;;;;;9.27;4.65;;;7.40;47.30;;;;;;5071636;23;20060;-79
2022/03/02 11:19:08;;;;;;;7.63;4.43;;;7.60;46.40;;;;;;5038886;28;20045;-78
2022/03/02 11:21:36;;;;;;;10.60;4.55;;;7.60;46.30;;;;;;5026946;28;20080;-78
2022/03/02 11:24:04;;;;;;;11.05;4.72;;;7.80;46.90;;;;;;5058209;28;20073;-78
2022/03/02 11:26:40;;;;;;;9.50;4.57;;;7.90;46.20;;;;;;5048444;28;20037;-78
2022/03/02 11:29:13;;;;;;;7.70;4.20;;;7.90;46.00;;;;;;5061221;28;20013;-78
2022/03/02 11:31:42;;;;;;;8.73;4.57;;;7.70;46.20;;;;;;5056206;28;20056;-79
2022/03/02 11:34:08;;;;;;;8.02;4.57;;;7.60;46.10;;;;;;5074336;28;20025;-78
2022/03/02 11:36:36;;;;;;;11.45;5.18;;;7.60;46.60;;;;;;5053917;28;20035;-77
2022/03/02 11:39:03;;;;;;;7.35;4.45;;;7.60;46.20;;;;;;5069714;28;20018;-79
2022/03/02 11:41:38;;;;;;;9.50;5.15;;;7.60;46.90;;;;;;5071498;28;20028;-79
2022/03/02 11:44:23;;;;;;;6.13;4.32;;;7.70;46.40;;;;;;5053775;28;20089;-79
2022/03/02 11:46:49;;;;;;;10.68;4.75;;;8.10;46.90;;;;;;5045147;28;20065;-80
2022/03/02 11:49:15;;;;;;;6.70;4.40;;;8.20;46.10;;;;;;5062027;28;20032;-79
2022/03/02 11:51:40;;;;;;;6.03;3.90;;;8.20;46.50;;;;;;5070167;28;20032;-80
2022/03/02 11:54:09;;;;;;;11.50;4.75;;;8.20;45.00;;;;;;5068811;28;20040;-79
2022/03/02 11:56:35;;;;;;;4.85;3.85;;;8.10;44.90;;;;;;5068563;28;20024;-80
2022/03/02 11:59:10;;;;;;;6.95;4.60;;;8.40;45.20;;;;;;5056779;28;20105;-80
2022/03/02 12:01:47;;;;;;;9.48;5.05;;;8.80;44.80;;;;;;5046652;28;20021;-79
2022/03/02 12:04:14;;;;;;;7.22;4.22;;;8.80;43.60;;;;;;5052353;28;20060;-79
2022/03/02 12:06:53;;;;;;;6.30;4.35;;;8.70;43.70;;;;;;5031562;28;20025;-80
2022/03/02 12:09:31;;;;;;;6.30;4.20;;;8.50;44.70;;;;;;5027872;28;20026;-78
2022/03/02 12:12:16;;;;;;;7.97;4.18;;;8.30;45.00;;;;;;5044967;28;20029;-79
2022/03/02 12:14:53;;;;;;;6.32;4.20;;;8.20;45.20;;;;;;5029470;28;20482;-79
2022/03/02 12:17:26;;;;;;;7.53;4.50;;;8.00;45.90;;;;;;5063619;28;20534;-81
2022/03/02 12:19:58;;;;;;;9.55;4.35;;;7.90;46.60;;;;;;5073697;28;20028;-80
2022/03/02 12:22:30;;;;;;;7.28;4.90;;;7.80;46.60;;;;;;5069174;28;20055;-80
2022/03/02 12:24:58;;;;;;;8.38;4.63;;;7.80;46.50;;;;;;5069437;28;20412;-79
2022/03/02 12:27:24;;;;;;;9.60;4.63;;;7.70;46.60;;;;;;5070544;28;20027;-80
2022/03/02 12:30:04;;;;;;;9.88;4.60;;;7.80;46.90;;;;;;5086518;28;20029;-79
2022/03/02 12:32:32;;;;;;;6.45;4.38;;;7.80;46.70;;;;;;5071348;28;20040;-79
2022/03/02 12:35:00;;;;;;;11.90;5.13;;;7.90;47.10;;;;;;5086985;28;20021;-78
2022/03/02 12:37:28;;;;;;;7.18;4.85;;;8.00;47.20;;;;;;5088600;28;20036;-80
2022/03/02 12:39:54;;;;;;;7.68;4.75;;;7.90;47.20;;;;;;5087273;28;20017;-79
2022/03/02 12:42:20;;;;;;;7.07;4.82;;;7.90;47.30;;;;;;5068331;28;20016;-79
2022/03/02 12:44:49;;;;;;;8.88;5.05;;;7.80;47.60;;;;;;5085548;28;20040;-79
2022/03/02 12:47:18;;;;;;;10.95;4.88;;;7.80;47.90;;;;;;5083209;28;20031;-80
2022/03/02 12:49:47;;;;;;;6.40;4.22;;;7.80;47.40;;;;;;5065356;28;20025;-79
2022/03/02 12:52:14;;;;;;;7.28;4.00;;;7.80;47.90;;;;;;5066067;28;20043;-80